createdAt,value
2023-01-12T00:01:33.456Z,8.07
2023-01-12T00:04:00.172Z,10.23
2023-01-12T00:06:26.861Z,15.23
2023-01-12T00:08:53.759Z,8.73
2023-01-12T00:11:21.293Z,10.00
2023-01-12T00:13:48.410Z,9.03
2023-01-12T00:16:35.816Z,12.27
2023-01-12T00:19:17.907Z,4.97
2023-01-12T00:21:50.425Z,6.17
2023-01-12T00:24:19.078Z,9.30
2023-01-12T00:26:47.006Z,4.30
2023-01-12T00:29:14.206Z,13.20
2023-01-12T00:31:40.886Z,17.77
2023-01-12T00:34:07.772Z,48.77
2023-01-12T00:36:34.539Z,23.33
2023-01-12T00:39:01.281Z,9.33
2023-01-12T00:41:48.450Z,20.03
2023-01-12T00:44:33.694Z,3.47
2023-01-12T00:47:00.327Z,7.20
2023-01-12T00:49:26.923Z,13.20
2023-01-12T00:51:53.547Z,9.77
2023-01-12T00:54:20.201Z,6.37
2023-01-12T00:56:47.079Z,4.00
2023-01-12T00:59:13.708Z,8.60
2023-01-12T01:01:40.461Z,7.87
2023-01-12T01:04:07.131Z,9.70
2023-01-12T01:06:33.750Z,18.93
2023-01-12T01:09:00.364Z,4.87
2023-01-12T01:11:26.981Z,6.70
2023-01-12T01:13:54.896Z,8.23
2023-01-12T01:16:21.566Z,3.70
2023-01-12T01:18:48.299Z,6.07
2023-01-12T01:21:14.985Z,7.77
2023-01-12T01:23:42.854Z,9.23
2023-01-12T01:26:15.349Z,5.27
2023-01-12T01:28:42.383Z,4.93
2023-01-12T01:31:12.067Z,8.73
2023-01-12T01:33:39.227Z,9.53
2023-01-12T01:36:06.317Z,14.57
2023-01-12T01:38:33.379Z,8.83
2023-01-12T01:41:00.600Z,6.97
2023-01-12T01:43:28.407Z,9.30
2023-01-12T01:46:03.949Z,11.40
2023-01-12T01:48:33.637Z,4.77
2023-01-12T01:51:04.924Z,6.23
2023-01-12T01:53:36.095Z,16.13
2023-01-12T01:56:08.185Z,8.80
2023-01-12T01:58:37.167Z,6.20
2023-01-12T02:01:04.293Z,4.17
2023-01-12T02:03:34.043Z,7.67
2023-01-12T02:06:03.915Z,17.90
2023-01-12T02:08:56.106Z,4.33
2023-01-12T02:11:41.801Z,24.47
2023-01-12T02:14:28.345Z,9.97
2023-01-12T02:17:19.770Z,9.17
2023-01-12T02:20:14.387Z,4.67
2023-01-12T02:23:04.085Z,7.67
2023-01-12T02:25:55.175Z,5.33
2023-01-12T02:28:34.034Z,8.60
2023-01-12T02:31:31.662Z,19.43
2023-01-12T02:34:13.045Z,9.43
2023-01-12T02:37:02.749Z,1.70
2023-01-12T02:39:58.908Z,14.67
2023-01-12T02:42:44.770Z,10.37
2023-01-12T02:45:25.250Z,9.00
2023-01-12T02:48:04.161Z,12.07
2023-01-12T02:50:52.493Z,4.53
2023-01-12T02:53:32.745Z,14.57
2023-01-12T02:56:10.060Z,21.33
2023-01-12T02:58:42.644Z,10.90
2023-01-12T03:01:10.393Z,12.87
2023-01-12T03:03:39.806Z,4.80
2023-01-12T03:06:07.650Z,7.47
2023-01-12T03:08:38.550Z,10.60
2023-01-12T03:11:14.358Z,3.80
2023-01-12T03:13:46.167Z,8.37
2023-01-12T03:16:16.215Z,4.97
2023-01-12T03:18:56.384Z,8.80
2023-01-12T03:21:44.800Z,10.87
2023-01-12T03:24:15.593Z,7.00
2023-01-12T03:26:47.469Z,4.13
2023-01-12T03:29:19.335Z,15.13
2023-01-12T03:31:46.497Z,6.53
2023-01-12T03:34:13.271Z,12.03
2023-01-12T03:36:56.698Z,7.60
2023-01-12T03:39:47.921Z,6.47
2023-01-12T03:42:26.300Z,4.07
2023-01-12T03:45:08.662Z,12.13
2023-01-12T03:47:36.785Z,5.50
2023-01-12T03:50:11.474Z,12.80
2023-01-12T03:52:40.968Z,8.50
2023-01-12T03:55:11.241Z,7.10
2023-01-12T03:57:39.523Z,2.20
2023-01-12T04:00:10.126Z,2.33
2023-01-12T04:02:36.892Z,4.90
2023-01-12T04:05:04.311Z,5.17
2023-01-12T04:07:31.072Z,8.87
2023-01-12T04:09:57.676Z,9.17
2023-01-12T04:12:24.319Z,12.60
2023-01-12T04:14:50.958Z,6.90
2023-01-12T04:17:17.776Z,9.70
2023-01-12T04:19:44.495Z,12.20
2023-01-12T04:22:33.882Z,8.10
2023-01-12T04:25:00.556Z,9.07
2023-01-12T04:27:27.225Z,18.20
2023-01-12T04:29:54.713Z,8.83
2023-01-12T04:32:22.045Z,9.20
2023-01-12T04:34:48.747Z,6.00
2023-01-12T04:37:15.600Z,20.33
2023-01-12T04:39:42.194Z,9.97
2023-01-12T04:42:31.453Z,9.33
2023-01-12T04:44:58.110Z,9.00
2023-01-12T04:47:24.729Z,10.70
2023-01-12T04:49:51.400Z,9.70
2023-01-12T04:52:17.978Z,4.53
2023-01-12T04:54:44.575Z,7.23
2023-01-12T04:57:11.221Z,4.93
2023-01-12T04:59:37.799Z,9.93
2023-01-12T05:02:04.442Z,4.03
2023-01-12T05:04:31.140Z,4.63
2023-01-12T05:06:57.737Z,8.40
2023-01-12T05:09:43.265Z,6.73
2023-01-12T05:12:09.860Z,7.33
2023-01-12T05:14:36.470Z,4.90
2023-01-12T05:17:03.545Z,6.83
2023-01-12T05:19:30.184Z,2.90
2023-01-12T05:21:56.767Z,3.33
2023-01-12T05:24:23.406Z,4.50
2023-01-12T05:26:50.031Z,3.83
2023-01-12T05:29:16.805Z,4.30
2023-01-12T05:31:43.451Z,3.27
2023-01-12T05:34:10.673Z,7.97
2023-01-12T05:36:37.267Z,5.20
2023-01-12T05:39:05.410Z,14.73
2023-01-12T05:41:31.991Z,4.93
2023-01-12T05:43:58.558Z,3.23
2023-01-12T05:46:28.398Z,5.33
2023-01-12T05:48:56.330Z,2.03
2023-01-12T05:51:24.909Z,3.80
2023-01-12T05:53:51.833Z,6.70
2023-01-12T05:56:25.634Z,9.43
2023-01-12T05:58:57.040Z,7.37
2023-01-12T06:01:24.327Z,5.50
2023-01-12T06:03:52.720Z,10.17
2023-01-12T06:06:20.619Z,2.00
2023-01-12T06:08:49.676Z,2.90
2023-01-12T06:11:36.278Z,4.73
2023-01-12T06:14:04.065Z,3.07
2023-01-12T06:16:30.795Z,3.03
2023-01-12T06:18:57.513Z,8.13
2023-01-12T06:21:25.073Z,4.80
2023-01-12T06:23:51.978Z,2.00
2023-01-12T06:26:18.607Z,2.43
2023-01-12T06:28:45.445Z,5.80
2023-01-12T06:31:13.614Z,4.50
2023-01-12T06:33:40.718Z,1.73
2023-01-12T06:36:08.052Z,3.33
2023-01-12T06:38:37.129Z,5.47
2023-01-12T06:41:29.214Z,4.67
2023-01-12T06:43:56.546Z,3.37
2023-01-12T06:46:23.347Z,4.40
2023-01-12T06:48:49.942Z,3.60
2023-01-12T06:51:16.699Z,3.03
2023-01-12T06:53:43.291Z,5.87
2023-01-12T06:56:09.896Z,2.20
2023-01-12T06:58:36.502Z,5.80
2023-01-12T07:01:04.398Z,2.67
2023-01-12T07:03:31.070Z,3.23
2023-01-12T07:06:01.193Z,8.73
2023-01-12T07:08:28.114Z,6.00
2023-01-12T07:10:54.787Z,1.63
2023-01-12T07:13:21.923Z,3.13
2023-01-12T07:15:48.549Z,4.30
2023-01-12T07:18:15.244Z,3.53
2023-01-12T07:20:41.856Z,4.60
2023-01-12T07:23:08.494Z,5.43
2023-01-12T07:25:35.085Z,3.77
2023-01-12T07:28:01.889Z,2.40
2023-01-12T07:30:28.602Z,3.03
2023-01-12T07:32:55.325Z,4.80
2023-01-12T07:35:22.169Z,3.83
2023-01-12T07:37:55.645Z,3.07
2023-01-12T07:40:22.418Z,1.87
2023-01-12T07:42:49.086Z,3.17
2023-01-12T07:45:15.745Z,11.70
2023-01-12T07:47:42.464Z,2.30
2023-01-12T07:50:11.123Z,2.57
2023-01-12T07:52:41.351Z,4.00
2023-01-12T07:55:08.296Z,2.17
2023-01-12T07:57:36.597Z,6.87
2023-01-12T08:00:06.596Z,3.87
2023-01-12T08:02:33.704Z,2.20
2023-01-12T08:05:00.341Z,1.63
2023-01-12T08:07:26.996Z,2.93
2023-01-12T08:09:53.610Z,3.53
2023-01-12T08:12:20.209Z,1.73
2023-01-12T08:14:46.883Z,2.00
2023-01-12T08:17:20.494Z,0.77
2023-01-12T08:19:54.092Z,1.83
2023-01-12T08:22:28.944Z,2.30
2023-01-12T08:25:10.644Z,1.33
2023-01-12T08:27:40.130Z,7.20
2023-01-12T08:30:08.693Z,1.37
2023-01-12T08:32:36.832Z,2.27
2023-01-12T08:35:04.872Z,0.80
2023-01-12T08:37:32.764Z,3.43
2023-01-12T08:39:59.563Z,0.60
2023-01-12T08:42:28.773Z,0.70
2023-01-12T08:44:56.349Z,8.70
2023-01-12T08:47:30.153Z,2.40
2023-01-12T08:49:59.112Z,2.30
2023-01-12T08:52:29.301Z,1.93
2023-01-12T08:54:56.145Z,4.07
2023-01-12T08:57:22.907Z,1.57
2023-01-12T08:59:49.648Z,4.67
2023-01-12T09:02:16.779Z,2.50
2023-01-12T09:04:43.602Z,1.47
2023-01-12T09:07:12.077Z,0.60
2023-01-12T09:09:38.940Z,0.73
2023-01-12T09:12:06.890Z,0.43
2023-01-12T09:14:38.701Z,1.80
2023-01-12T09:17:06.930Z,0.57
2023-01-12T09:19:33.609Z,2.10
2023-01-12T09:22:00.217Z,0.63
2023-01-12T09:24:27.427Z,0.60
2023-01-12T09:26:54.131Z,0.33
2023-01-12T09:29:20.720Z,0.60
2023-01-12T09:31:47.421Z,0.80
2023-01-12T09:34:14.600Z,3.03
2023-01-12T09:36:41.981Z,2.00
2023-01-12T09:39:10.230Z,0.70
2023-01-12T09:42:02.970Z,0.47
2023-01-12T09:44:50.327Z,0.60
2023-01-12T09:48:03.594Z,0.50
2023-01-12T09:50:53.622Z,4.93
2023-01-12T09:53:28.590Z,2.00
2023-01-12T09:56:08.539Z,0.63
2023-01-12T09:58:38.186Z,1.50
2023-01-12T10:01:28.335Z,0.50
2023-01-12T10:03:57.494Z,0.50
2023-01-12T10:06:24.120Z,0.93
2023-01-12T10:08:58.688Z,0.70
2023-01-12T10:11:30.319Z,1.47
2023-01-12T10:14:13.462Z,0.50
2023-01-12T10:17:17.519Z,0.60
2023-01-12T10:20:02.757Z,3.97
2023-01-12T10:22:47.409Z,0.53
2023-01-12T10:25:17.455Z,1.57
2023-01-12T10:27:46.391Z,3.87
2023-01-12T10:30:14.560Z,0.50
2023-01-12T10:32:42.379Z,0.83
2023-01-12T10:35:18.546Z,0.73
2023-01-12T10:37:51.196Z,0.60
2023-01-12T10:40:28.334Z,0.80
2023-01-12T10:43:20.167Z,1.00
2023-01-12T10:46:10.443Z,1.60
2023-01-12T10:48:42.618Z,2.10
2023-01-12T10:51:26.155Z,3.80
2023-01-12T10:54:31.398Z,0.60
2023-01-12T10:57:23.191Z,1.10
2023-01-12T10:59:55.616Z,1.60
2023-01-12T11:02:24.243Z,0.90
2023-01-12T11:04:52.421Z,0.70
2023-01-12T11:07:21.943Z,0.60
2023-01-12T11:09:49.108Z,1.10
2023-01-12T11:12:23.770Z,1.00
2023-01-12T11:15:09.245Z,1.13
2023-01-12T11:17:39.052Z,5.20
2023-01-12T11:20:21.724Z,1.53
2023-01-12T11:22:54.629Z,0.77
2023-01-12T11:25:41.590Z,1.17
2023-01-12T11:28:14.604Z,1.70
2023-01-12T11:30:52.266Z,0.73
2023-01-12T11:33:21.761Z,1.40
2023-01-12T11:36:02.875Z,0.70
2023-01-12T11:38:34.703Z,0.70
2023-01-12T11:41:03.394Z,1.27
2023-01-12T11:43:56.107Z,1.73
2023-01-12T11:46:46.472Z,0.60
2023-01-12T11:49:39.212Z,0.70
2023-01-12T11:52:10.643Z,0.60
2023-01-12T11:54:38.834Z,1.33
2023-01-12T11:57:11.617Z,2.00
2023-01-12T12:00:00.049Z,0.60
2023-01-12T12:02:37.434Z,0.60
2023-01-12T12:05:35.340Z,1.23
2023-01-12T12:08:04.896Z,5.77
2023-01-12T12:10:48.725Z,0.80
2023-01-12T12:13:39.838Z,0.83
2023-01-12T12:16:41.891Z,1.73
2023-01-12T12:19:20.000Z,1.23
2023-01-12T12:21:57.409Z,0.97
2023-01-12T12:24:36.235Z,1.27
2023-01-12T12:27:28.155Z,0.50
2023-01-12T12:30:16.328Z,1.80
2023-01-12T12:32:53.402Z,0.60
2023-01-12T12:35:48.236Z,1.90
2023-01-12T12:38:26.774Z,0.80
2023-01-12T12:41:36.853Z,1.10
2023-01-12T12:44:40.831Z,1.63
2023-01-12T12:47:44.368Z,1.93
2023-01-12T12:50:39.622Z,4.93
2023-01-12T12:53:12.555Z,1.20
2023-01-12T12:55:40.104Z,10.63
2023-01-12T12:58:28.792Z,2.83
2023-01-12T13:01:15.835Z,1.47
2023-01-12T13:03:42.585Z,1.70
2023-01-12T13:06:22.193Z,1.93
2023-01-12T13:08:52.175Z,1.10
2023-01-12T13:11:19.728Z,1.40
2023-01-12T13:14:02.941Z,3.33
2023-01-12T13:16:29.546Z,1.50
2023-01-12T13:18:56.101Z,8.40
2023-01-12T13:21:58.510Z,7.10
2023-01-12T13:24:29.032Z,6.93
2023-01-12T13:26:58.687Z,9.07
2023-01-12T13:29:28.306Z,3.03
2023-01-12T13:32:40.324Z,4.43
2023-01-12T13:35:35.707Z,12.50
2023-01-12T13:38:17.857Z,8.23
2023-01-12T13:40:56.058Z,4.10
2023-01-12T13:43:34.023Z,4.33
2023-01-12T13:46:36.489Z,6.60
2023-01-12T13:49:14.610Z,6.47
2023-01-12T13:51:48.250Z,6.60
2023-01-12T13:54:16.146Z,4.10
2023-01-12T13:56:53.332Z,7.17
2023-01-12T13:59:20.587Z,15.43
2023-01-12T14:01:48.417Z,9.80
2023-01-12T14:04:19.866Z,8.37
2023-01-12T14:07:16.480Z,8.60
2023-01-12T14:10:07.742Z,3.13
2023-01-12T14:13:03.379Z,1.97
2023-01-12T14:15:57.777Z,10.53
2023-01-12T14:18:40.281Z,7.23
2023-01-12T14:21:37.845Z,12.63
2023-01-12T14:24:17.551Z,8.03
2023-01-12T14:26:44.373Z,7.67
2023-01-12T14:29:12.714Z,5.77
2023-01-12T14:31:48.253Z,9.93
2023-01-12T14:34:38.482Z,3.90
2023-01-12T14:37:07.730Z,11.10
2023-01-12T14:39:40.933Z,5.10
2023-01-12T14:42:35.620Z,7.90
2023-01-12T14:45:21.350Z,11.67
2023-01-12T14:47:48.073Z,6.30
2023-01-12T14:50:14.759Z,7.60
2023-01-12T14:52:43.803Z,11.03
2023-01-12T14:55:26.262Z,7.40
2023-01-12T14:57:57.334Z,9.83
2023-01-12T15:00:27.278Z,15.23
2023-01-12T15:02:56.804Z,11.33
2023-01-12T15:05:26.474Z,7.57
2023-01-12T15:08:02.449Z,10.83
2023-01-12T15:10:31.838Z,22.17
2023-01-12T15:13:11.926Z,20.37
2023-01-12T15:15:57.514Z,18.43
2023-01-12T15:18:42.931Z,10.10
2023-01-12T15:21:28.529Z,11.50
2023-01-12T15:24:13.855Z,15.73
2023-01-12T15:26:40.447Z,25.87
2023-01-12T15:29:08.531Z,11.40
2023-01-12T15:31:37.440Z,13.30
2023-01-12T15:34:05.377Z,16.27
2023-01-12T15:36:32.002Z,15.07
2023-01-12T15:38:58.707Z,13.50
2023-01-12T15:41:49.507Z,13.60
2023-01-12T15:44:20.881Z,10.40
2023-01-12T15:46:47.836Z,15.43
2023-01-12T15:49:15.516Z,10.93
2023-01-12T15:51:46.935Z,20.97
2023-01-12T15:54:19.207Z,10.13
2023-01-12T15:56:46.210Z,7.80
2023-01-12T15:59:12.834Z,14.17
2023-01-12T16:01:47.017Z,9.87
2023-01-12T16:07:05.986Z,11.73
2023-01-12T16:09:32.585Z,14.80
2023-01-12T16:11:59.202Z,12.43
2023-01-12T16:14:28.940Z,16.70
2023-01-12T16:16:56.919Z,9.07
2023-01-12T16:19:23.744Z,14.87
2023-01-12T16:21:50.683Z,17.70
2023-01-12T16:24:17.318Z,14.20
2023-01-12T16:26:45.249Z,7.23
2023-01-12T16:29:11.912Z,8.70
2023-01-12T16:31:39.453Z,5.53
2023-01-12T16:34:06.354Z,12.43
2023-01-12T16:36:33.582Z,6.53
2023-01-12T16:39:00.294Z,9.90
2023-01-12T16:41:26.895Z,8.30
2023-01-12T16:43:54.479Z,11.40
2023-01-12T16:46:21.268Z,6.10
2023-01-12T16:48:48.204Z,4.80
2023-01-12T16:51:17.708Z,12.90
2023-01-12T16:53:44.971Z,3.80
2023-01-12T16:56:13.935Z,4.93
2023-01-12T16:58:48.129Z,4.03
2023-01-12T17:01:17.854Z,4.50
2023-01-12T17:03:44.640Z,8.10
2023-01-12T17:06:13.101Z,6.10
2023-01-12T17:08:41.524Z,7.63
2023-01-12T17:11:10.187Z,9.30
2023-01-12T17:13:37.460Z,5.00
2023-01-12T17:16:07.770Z,8.67
2023-01-12T17:18:35.135Z,7.03
2023-01-12T17:21:04.072Z,7.80
2023-01-12T17:23:30.826Z,10.13
2023-01-12T17:26:02.606Z,5.03
2023-01-12T17:28:29.972Z,5.73
2023-01-12T17:30:57.569Z,5.60
2023-01-12T17:33:24.389Z,7.00
2023-01-12T17:35:51.258Z,3.13
2023-01-12T17:38:17.997Z,4.40
2023-01-12T17:40:44.628Z,4.83
2023-01-12T17:43:14.596Z,1.40
2023-01-12T17:45:42.750Z,7.50
2023-01-12T17:48:11.826Z,3.03
2023-01-12T17:50:40.298Z,3.90
2023-01-12T17:53:09.329Z,2.07
2023-01-12T17:55:47.567Z,3.20
2023-01-12T17:58:17.424Z,2.10
2023-01-12T18:00:44.337Z,2.17
2023-01-12T18:03:11.048Z,6.30
2023-01-12T18:05:38.490Z,2.43
2023-01-12T18:08:05.218Z,2.23
2023-01-12T18:10:32.026Z,4.03
2023-01-12T18:12:59.097Z,2.10
2023-01-12T18:15:25.678Z,3.23
2023-01-12T18:17:52.621Z,1.60
2023-01-12T18:20:19.280Z,2.43
2023-01-12T18:22:45.958Z,1.60
2023-01-12T18:25:12.637Z,2.57
2023-01-12T18:27:39.246Z,1.40
2023-01-12T18:30:06.341Z,1.60
2023-01-12T18:32:32.946Z,1.70
2023-01-12T18:35:00.191Z,1.97
2023-01-12T18:37:26.795Z,1.70
2023-01-12T18:39:53.506Z,1.70
2023-01-12T18:42:39.036Z,2.30
2023-01-12T18:45:06.062Z,2.13
2023-01-12T18:47:51.278Z,2.17
2023-01-12T18:50:36.664Z,2.47
2023-01-12T18:53:22.132Z,2.00
2023-01-12T18:55:51.903Z,1.90
2023-01-12T18:58:18.539Z,2.80
2023-01-12T19:00:45.136Z,1.90
2023-01-12T19:03:12.889Z,2.93
2023-01-12T19:05:53.282Z,3.03
2023-01-12T19:08:46.360Z,6.53
2023-01-12T19:11:14.975Z,4.40
2023-01-12T19:14:01.056Z,3.80
2023-01-12T19:16:46.851Z,2.70
2023-01-12T19:19:13.463Z,5.90
2023-01-12T19:21:58.518Z,2.20
2023-01-12T19:24:44.036Z,1.70
2023-01-12T19:27:31.996Z,2.20
2023-01-12T19:29:58.913Z,1.00
2023-01-12T19:32:25.628Z,1.27
2023-01-12T19:34:56.538Z,1.13
2023-01-12T19:37:28.923Z,1.20
2023-01-12T19:40:13.042Z,1.60
2023-01-12T19:42:58.347Z,2.60
2023-01-12T19:45:25.024Z,2.37
2023-01-12T19:47:51.871Z,1.33
2023-01-12T19:50:18.565Z,1.90
2023-01-12T19:52:45.884Z,1.53
2023-01-12T19:55:14.472Z,1.23
2023-01-12T19:57:42.953Z,2.77
2023-01-12T20:00:16.385Z,3.47
2023-01-12T20:02:44.044Z,2.40
2023-01-12T20:05:13.324Z,2.10
2023-01-12T20:07:40.339Z,1.90
2023-01-12T20:10:07.254Z,2.60
2023-01-12T20:12:33.888Z,4.43
2023-01-12T20:15:00.569Z,3.00
2023-01-12T20:17:27.683Z,2.97
2023-01-12T20:19:54.302Z,3.53
2023-01-12T20:22:21.023Z,3.73
2023-01-12T20:24:48.501Z,4.30
2023-01-12T20:27:15.584Z,2.93
2023-01-12T20:29:42.245Z,2.43
2023-01-12T20:32:08.850Z,2.70
2023-01-12T20:34:35.523Z,2.60
2023-01-12T20:37:02.112Z,2.03
2023-01-12T20:39:29.474Z,3.33
2023-01-12T20:41:56.208Z,4.10
2023-01-12T20:44:22.886Z,1.90
2023-01-12T20:46:49.591Z,4.13
2023-01-12T20:49:16.318Z,2.20
2023-01-12T20:51:42.966Z,1.73
2023-01-12T20:54:10.182Z,2.00
2023-01-12T20:56:37.129Z,1.70
2023-01-12T20:59:03.768Z,1.57
2023-01-12T21:01:30.497Z,1.90
2023-01-12T21:03:58.328Z,1.30
2023-01-12T21:06:25.038Z,2.40
2023-01-12T21:08:51.697Z,2.37
2023-01-12T21:11:20.383Z,3.27
2023-01-12T21:13:47.462Z,2.60
2023-01-12T21:16:17.768Z,1.90
2023-01-12T21:18:45.042Z,2.00
2023-01-12T21:21:12.556Z,1.97
2023-01-12T21:23:39.257Z,3.27
2023-01-12T21:26:07.926Z,2.20
2023-01-12T21:28:37.488Z,2.27
2023-01-12T21:31:05.595Z,2.30
2023-01-12T21:33:32.290Z,2.50
2023-01-12T21:35:59.766Z,1.97
2023-01-12T21:38:27.409Z,3.77
2023-01-12T21:40:54.948Z,4.20
2023-01-12T21:43:21.654Z,2.33
2023-01-12T21:45:51.245Z,3.00
2023-01-12T21:48:20.380Z,2.10
2023-01-12T21:50:47.537Z,2.67
2023-01-12T21:53:16.113Z,2.93
2023-01-12T21:55:42.815Z,4.63
2023-01-12T21:58:09.595Z,3.40
2023-01-12T22:00:36.247Z,6.03
2023-01-12T22:03:02.870Z,5.20
2023-01-12T22:05:29.752Z,2.97
2023-01-12T22:07:57.787Z,2.70
2023-01-12T22:10:30.174Z,2.60
2023-01-12T22:12:59.676Z,2.57
2023-01-12T22:15:28.156Z,2.50
2023-01-12T22:17:55.667Z,2.13
2023-01-12T22:20:24.143Z,2.97
2023-01-12T22:22:51.271Z,2.20
2023-01-12T22:25:18.120Z,4.40
2023-01-12T22:27:45.258Z,4.00
2023-01-12T22:30:18.377Z,2.90
2023-01-12T22:32:45.507Z,1.90
2023-01-12T22:35:13.345Z,2.30
2023-01-12T22:37:40.727Z,2.23
2023-01-12T22:40:10.747Z,1.70
2023-01-12T22:42:56.331Z,2.03
2023-01-12T22:45:23.176Z,3.63
2023-01-12T22:47:53.983Z,1.80
2023-01-12T22:50:21.923Z,3.23
2023-01-12T22:52:54.532Z,5.60
2023-01-12T22:55:22.708Z,2.40
2023-01-12T22:57:49.432Z,2.30
2023-01-12T23:00:18.169Z,2.60
2023-01-12T23:03:00.131Z,1.77
2023-01-12T23:05:36.044Z,3.87
2023-01-12T23:08:05.480Z,2.20
2023-01-12T23:10:32.893Z,1.47
2023-01-12T23:13:13.961Z,3.53
2023-01-12T23:15:43.506Z,1.60
2023-01-12T23:18:10.668Z,2.37
2023-01-12T23:20:38.175Z,1.73
2023-01-12T23:23:06.359Z,2.20
2023-01-12T23:25:33.828Z,3.90
2023-01-12T23:28:01.081Z,2.87
2023-01-12T23:30:30.668Z,1.50
2023-01-12T23:32:59.145Z,2.60
2023-01-12T23:35:27.038Z,2.03
2023-01-12T23:37:54.051Z,1.17
2023-01-12T23:40:21.336Z,1.60
2023-01-12T23:42:48.327Z,2.20
2023-01-12T23:45:15.106Z,1.60
2023-01-12T23:47:42.710Z,2.97
2023-01-12T23:50:11.454Z,3.20
2023-01-12T23:52:38.815Z,1.70
2023-01-12T23:55:06.973Z,1.70
2023-01-12T23:57:34.354Z,0.97
